Time;durP1;ratioP1;P1;durP2;ratioP2;P2;SDS_P1;SDS_P2;PMS_P1;PMS_P2;Temp;Humidity;BMP_temperature;BMP_pressure;BME280_temperature;BME280_humidity;BME280_pressure;Samples;Min_cycle;Max_cycle;Signal;HPM_P1;HPM_P2
2022/11/29 00:00:19;;;;;;;74.88;35.95;;;;;;;5.00;100.00;101292.78;4992295;28;20018;-77
2022/11/29 00:02:44;;;;;;;71.43;34.05;;;;;;;4.84;100.00;101286.84;4997660;28;20023;-78
2022/11/29 00:05:10;;;;;;;76.00;35.40;;;;;;;4.94;100.00;101292.38;5001564;28;20475;-78
2022/11/29 00:07:35;;;;;;;81.80;36.60;;;;;;;4.87;100.00;101286.59;5003402;28;20536;-78
2022/11/29 00:10:01;;;;;;;78.93;37.22;;;;;;;5.00;100.00;101287.41;4992855;28;20125;-79
2022/11/29 00:12:26;;;;;;;77.65;37.22;;;;;;;4.96;100.00;101280.59;4993038;28;20032;-78
2022/11/29 00:14:51;;;;;;;74.00;35.95;;;;;;;4.99;100.00;101280.34;4991456;28;20048;-78
2022/11/29 00:17:17;;;;;;;73.63;35.50;;;;;;;5.02;100.00;101289.97;4997898;28;20025;-78
2022/11/29 00:19:44;;;;;;;75.10;33.85;;;;;;;4.99;100.00;101284.84;5013510;28;20018;-76
2022/11/29 00:22:09;;;;;;;76.47;35.30;;;;;;;5.03;100.00;101286.34;4992034;28;20125;-77
2022/11/29 00:24:35;;;;;;;74.85;37.67;;;;;;;4.65;100.00;101286.44;5001713;28;20435;-76
2022/11/29 00:27:01;;;;;;;81.35;37.25;;;;;;;4.73;100.00;101284.91;4996755;28;20037;-77
2022/11/29 00:29:28;;;;;;;86.60;38.30;;;;;;;4.79;100.00;101289.84;4999164;28;20037;-76
2022/11/29 00:31:53;;;;;;;74.80;36.65;;;;;;;4.84;100.00;101281.47;5000844;28;20048;-77
2022/11/29 00:34:19;;;;;;;80.45;38.13;;;;;;;4.85;100.00;101275.13;5012183;28;20493;-77
2022/11/29 00:36:44;;;;;;;81.13;36.78;;;;;;;4.86;100.00;101279.53;5002985;28;20025;-75
2022/11/29 00:39:11;;;;;;;88.43;38.97;;;;;;;4.89;100.00;101279.31;4999437;28;20478;-77
2022/11/29 00:41:37;;;;;;;81.32;38.67;;;;;;;4.96;100.00;101283.25;5012386;28;20112;-77
2022/11/29 00:44:03;;;;;;;88.90;40.80;;;;;;;4.75;100.00;101277.59;4994140;28;20759;-77
2022/11/29 00:46:28;;;;;;;88.38;38.88;;;;;;;4.69;100.00;101282.56;4996261;28;20040;-76
2022/11/29 00:48:53;;;;;;;72.70;34.88;;;;;;;4.83;100.00;101287.81;4997403;28;20085;-76
2022/11/29 00:51:19;;;;;;;81.25;39.10;;;;;;;4.76;100.00;101278.47;5001521;28;20013;-77
2022/11/29 00:53:44;;;;;;;88.43;41.33;;;;;;;4.54;100.00;101274.66;5001460;28;20036;-76
2022/11/29 00:56:10;;;;;;;78.40;38.13;;;;;;;4.81;100.00;101276.31;4998118;28;20041;-77
2022/11/29 00:58:36;;;;;;;83.68;39.55;;;;;;;4.75;100.00;101282.13;5003966;28;20113;-77
2022/11/29 01:01:01;;;;;;;84.65;41.55;;;;;;;4.85;100.00;101283.19;5003717;28;20021;-77
2022/11/29 01:03:27;;;;;;;87.22;42.20;;;;;;;4.48;100.00;101274.22;4997946;28;20088;-77
2022/11/29 01:06:09;;;;;;;91.45;41.20;;;;;;;4.61;100.00;101275.91;5007203;28;20026;-77
2022/11/29 01:08:34;;;;;;;;;;;;;;;4.56;100.00;101283.47;5001799;28;20018;-77
2022/11/29 01:11:11;;;;;;;91.22;40.38;;;;;;;4.67;100.00;101279.13;4998198;28;19917;-76
2022/11/29 01:13:36;;;;;;;88.72;40.88;;;;;;;4.56;100.00;101272.72;5003628;28;20040;-77
2022/11/29 01:16:02;;;;;;;96.75;40.22;;;;;;;4.69;100.00;101285.25;4998316;28;20054;-78
2022/11/29 01:18:29;;;;;;;83.07;39.72;;;;;;;4.60;100.00;101279.56;4992700;28;20076;-77
2022/11/29 01:21:00;;;;;;;89.03;42.85;;;;;;;4.58;100.00;101286.88;4996787;28;20173;-76
2022/11/29 01:23:26;;;;;;;92.95;42.38;;;;;;;4.57;100.00;101289.69;5004004;28;20085;-76
2022/11/29 01:26:00;;;;;;;87.55;39.13;;;;;;;4.59;100.00;101293.97;4992932;28;20064;-76
2022/11/29 01:28:26;;;;;;;88.97;39.63;;;;;;;4.89;100.00;101290.06;4999408;28;20029;-77
2022/11/29 01:30:51;;;;;;;85.93;40.30;;;;;;;4.64;100.00;101290.94;5006472;28;20045;-77
2022/11/29 01:33:17;;;;;;;90.60;41.22;;;;;;;4.61;100.00;101289.31;4999583;28;20034;-77
2022/11/29 01:35:47;;;;;;;95.38;44.05;;;;;;;4.55;100.00;101287.09;4997348;28;20033;-76
2022/11/29 01:38:12;;;;;;;86.95;41.13;;;;;;;4.69;100.00;101293.28;5004017;28;20168;-77
2022/11/29 01:40:38;;;;;;;92.00;44.42;;;;;;;4.58;100.00;101286.88;5008170;28;20029;-78
2022/11/29 01:43:15;;;;;;;94.05;42.63;;;;;;;4.35;100.00;101290.31;5002884;28;20053;-76
2022/11/29 01:45:41;;;;;;;91.78;42.95;;;;;;;4.65;100.00;101291.81;5001474;28;20057;-76
2022/11/29 01:48:06;;;;;;;90.40;40.97;;;;;;;4.68;100.00;101289.75;5002826;28;20399;-77
2022/11/29 01:50:31;;;;;;;86.80;40.72;;;;;;;4.55;100.00;101292.44;5002859;28;20030;-75
2022/11/29 01:52:58;;;;;;;83.95;40.72;;;;;;;4.66;100.00;101298.88;5013369;28;20409;-76
2022/11/29 01:55:24;;;;;;;98.40;40.63;;;;;;;4.84;100.00;101292.19;5002216;28;20024;-77
2022/11/29 01:57:49;;;;;;;91.22;42.60;;;;;;;4.53;100.00;101294.38;5003581;28;20108;-77
2022/11/29 02:00:17;;;;;;;104.40;46.47;;;;;;;4.63;100.00;101295.47;5022783;28;20032;-77
2022/11/29 02:02:48;;;;;;;89.63;42.33;;;;;;;4.76;100.00;101299.91;5014256;28;20036;-77
2022/11/29 02:05:17;;;;;;;90.63;41.70;;;;;;;4.55;100.00;101294.28;5004873;28;20076;-78
2022/11/29 02:07:47;;;;;;;86.85;38.30;;;;;;;4.92;100.00;101294.31;5010516;28;20021;-76
2022/11/29 02:10:15;;;;;;;85.93;40.08;;;;;;;4.84;100.00;101297.56;5002207;28;20022;-77
2022/11/29 02:13:12;;;;;;;97.28;45.00;;;;;;;4.54;100.00;101298.78;4995341;28;20014;-78
2022/11/29 02:15:37;;;;;;;91.57;42.55;;;;;;;4.69;100.00;101298.66;4996228;28;20073;-76
2022/11/29 02:18:09;;;;;;;93.65;43.15;;;;;;;4.65;100.00;101303.41;5001102;28;20033;-76
2022/11/29 02:20:58;;;;;;;99.68;43.50;;;;;;;4.44;100.00;101305.78;5007607;28;20030;-77
2022/11/29 02:23:54;;;;;;;98.10;42.85;;;;;;;4.55;100.00;101297.81;5000864;28;20038;-77
2022/11/29 02:26:37;;;;;;;98.43;41.97;;;;;;;4.53;100.00;101305.13;4999391;28;20041;-77
2022/11/29 02:29:45;;;;;;;102.70;45.25;;;;;;;4.38;100.00;101306.22;4992797;28;20034;-78
2022/11/29 02:32:35;;;;;;;97.53;43.70;;;;;;;4.37;100.00;101309.84;5001052;28;20060;-78
2022/11/29 02:35:38;;;;;;;107.30;46.03;;;;;;;4.21;100.00;101306.53;5015382;28;20037;-78
2022/11/29 02:38:13;;;;;;;96.07;43.00;;;;;;;4.37;100.00;101307.19;4987916;28;20026;-78
2022/11/29 02:40:56;;;;;;;102.18;44.42;;;;;;;4.19;100.00;101305.78;4997509;28;20024;-78
2022/11/29 02:43:42;;;;;;;102.30;45.63;;;;;;;4.49;100.00;101317.00;5011197;28;20037;-78
2022/11/29 02:46:36;;;;;;;100.05;45.00;;;;;;;4.54;100.00;101306.81;4995003;28;20029;-78
2022/11/29 02:49:06;;;;;;;105.05;48.25;;;;;;;4.34;100.00;101312.75;5000624;28;20025;-78
2022/11/29 02:51:57;;;;;;;102.90;44.25;;;;;;;4.39;100.00;101318.66;4994179;28;20069;-78
2022/11/29 02:54:32;;;;;;;100.55;44.88;;;;;;;4.21;100.00;101320.78;5001157;28;20050;-78
2022/11/29 02:57:06;;;;;;;114.32;47.50;;;;;;;4.06;100.00;101316.47;5001805;28;20025;-77
2022/11/29 02:59:46;;;;;;;110.38;47.25;;;;;;;4.23;100.00;101317.97;5009553;28;20025;-78
2022/11/29 03:02:34;;;;;;;103.25;46.60;;;;;;;4.25;100.00;101322.28;5007902;28;20044;-77
2022/11/29 03:05:17;;;;;;;113.03;47.88;;;;;;;4.35;100.00;101317.97;5012623;28;20030;-78
2022/11/29 03:08:04;;;;;;;107.38;46.55;;;;;;;4.31;100.00;101321.88;5008139;28;20022;-77
2022/11/29 03:10:48;;;;;;;116.93;46.17;;;;;;;4.32;100.00;101333.44;5019862;28;20029;-77
2022/11/29 03:14:02;;;;;;;112.13;48.95;;;;;;;4.04;100.00;101335.34;4991541;28;20057;-77
2022/11/29 03:16:37;;;;;;;109.13;45.60;;;;;;;4.31;100.00;101337.09;5073206;23;20046;-77
2022/11/29 03:19:30;;;;;;;105.25;46.08;;;;;;;4.32;100.00;101333.44;4997710;28;20030;-76
2022/11/29 03:22:21;;;;;;;105.28;46.45;;;;;;;4.27;100.00;101332.91;5026492;28;20030;-77
2022/11/29 03:25:36;;;;;;;122.43;49.30;;;;;;;4.18;100.00;101341.59;4996572;28;20037;-75
2022/11/29 03:28:10;;;;;;;103.45;43.53;;;;;;;4.23;100.00;101342.09;4998150;28;20025;-76
2022/11/29 03:30:39;;;;;;;109.95;44.95;;;;;;;4.29;100.00;101344.38;5011834;28;20089;-76
2022/11/29 03:33:26;;;;;;;109.95;45.95;;;;;;;4.36;100.00;101345.66;5011545;28;20025;-77
2022/11/29 03:36:08;;;;;;;108.43;46.50;;;;;;;4.34;100.00;101347.59;5012277;28;20027;-77
2022/11/29 03:38:41;;;;;;;;;;;;;;;4.41;100.00;101348.03;5012408;28;20030;-77
2022/11/29 03:41:24;;;;;;;110.15;48.15;;;;;;;4.29;100.00;101339.84;5012317;28;19909;-77
2022/11/29 03:44:11;;;;;;;112.03;47.90;;;;;;;4.42;100.00;101345.22;5011725;28;20025;-77
2022/11/29 03:46:45;;;;;;;115.65;50.10;;;;;;;4.37;100.00;101347.41;5011577;28;20029;-77
2022/11/29 03:49:44;;;;;;;107.95;47.17;;;;;;;4.16;100.00;101351.53;5011490;28;20021;-76
2022/11/29 03:52:18;;;;;;;112.43;49.85;;;;;;;4.26;100.00;101349.94;5022623;28;20095;-77
2022/11/29 03:55:06;;;;;;;113.60;47.03;;;;;;;4.26;100.00;101344.59;5011354;28;20033;-77
2022/11/29 03:58:13;;;;;;;107.35;50.63;;;;;;;4.25;100.00;101353.59;5012132;28;20025;-77
2022/11/29 04:00:48;;;;;;;114.78;49.55;;;;;;;4.24;100.00;101352.75;5007003;28;20045;-77
2022/11/29 04:03:22;;;;;;;108.13;46.72;;;;;;;4.18;100.00;101365.72;5012872;28;20056;-76
2022/11/29 04:06:10;;;;;;;111.10;48.72;;;;;;;4.09;100.00;101360.00;5012056;28;20028;-76
2022/11/29 04:09:11;;;;;;;113.20;48.45;;;;;;;4.14;100.00;101364.19;5013184;28;20047;-77
2022/11/29 04:12:03;;;;;;;106.63;47.40;;;;;;;4.09;100.00;101365.34;5012731;28;20025;-77
2022/11/29 04:15:08;;;;;;;119.68;51.10;;;;;;;4.08;100.00;101360.97;5007198;28;20033;-77
2022/11/29 04:17:54;;;;;;;116.78;48.13;;;;;;;4.12;100.00;101363.44;5010613;28;20073;-77
2022/11/29 04:20:37;;;;;;;108.15;47.50;;;;;;;3.99;100.00;101369.63;5011911;28;20029;-76
2022/11/29 04:23:24;;;;;;;112.25;47.78;;;;;;;4.00;100.00;101365.97;5011707;28;20090;-76
2022/11/29 04:26:21;;;;;;;110.85;49.03;;;;;;;4.36;100.00;101373.31;5022428;28;20021;-77
2022/11/29 04:29:26;;;;;;;108.22;47.50;;;;;;;4.24;100.00;101384.06;5003813;28;20474;-78
2022/11/29 04:32:20;;;;;;;113.72;47.80;;;;;;;4.37;100.00;101382.25;5004482;28;20075;-77
2022/11/29 04:35:01;;;;;;;114.47;47.75;;;;;;;4.35;100.00;101392.19;5004624;28;20116;-77
2022/11/29 04:37:54;;;;;;;125.82;50.92;;;;;;;4.23;100.00;101393.03;5006443;28;20026;-77
2022/11/29 04:40:39;;;;;;;116.07;47.60;;;;;;;4.17;100.00;101393.44;5013085;28;20029;-77
2022/11/29 04:43:29;;;;;;;120.82;49.72;;;;;;;4.24;100.00;101395.63;5013142;28;20041;-77
2022/11/29 04:46:29;;;;;;;108.28;49.03;;;;;;;4.12;100.00;101395.59;5013845;28;20061;-77
2022/11/29 04:49:31;;;;;;;118.30;48.75;;;;;;;4.12;100.00;101406.31;5030223;28;20053;-77
2022/11/29 04:52:35;;;;;;;113.43;51.10;;;;;;;4.26;100.00;101403.56;5016369;28;20037;-77
2022/11/29 04:55:07;;;;;;;113.65;50.50;;;;;;;4.37;100.00;101409.06;5030962;28;20041;-77
2022/11/29 04:57:59;;;;;;;100.18;40.00;;;;;;;4.30;100.00;101405.03;5013186;28;20121;-78
2022/11/29 05:00:25;;;;;;;118.97;50.25;;;;;;;4.45;100.00;101409.38;5013069;28;20052;-77
2022/11/29 05:03:01;;;;;;;108.57;49.20;;;;;;;4.36;100.00;101410.00;5031069;28;20052;-77
2022/11/29 05:05:29;;;;;;;115.40;49.17;;;;;;;4.09;100.00;101415.41;5030115;28;20072;-77
2022/11/29 05:08:28;;;;;;;113.85;51.85;;;;;;;4.25;100.00;101412.56;5013993;28;20091;-77
2022/11/29 05:11:15;;;;;;;112.07;47.33;;;;;;;4.26;100.00;101420.50;5014908;28;20021;-77
2022/11/29 05:14:07;;;;;;;117.13;49.85;;;;;;;4.39;100.00;101425.88;5017928;28;20025;-77
2022/11/29 05:16:33;;;;;;;116.97;50.53;;;;;;;4.00;100.00;101427.59;5018314;28;20056;-76
2022/11/29 05:19:10;;;;;;;110.60;50.60;;;;;;;4.27;100.00;101416.84;5018986;28;20107;-77
2022/11/29 05:22:15;;;;;;;130.20;54.33;;;;;;;4.05;100.00;101425.50;5036662;28;20029;-77
2022/11/29 05:24:54;;;;;;;123.57;52.10;;;;;;;4.25;100.00;101429.50;5035913;28;20037;-77
2022/11/29 05:27:47;;;;;;;120.25;50.50;;;;;;;4.23;100.00;101425.19;4998421;28;20117;-77
2022/11/29 05:30:20;;;;;;;125.80;51.55;;;;;;;4.20;100.00;101436.13;4998539;28;20057;-77
2022/11/29 05:33:02;;;;;;;127.10;51.13;;;;;;;4.24;100.00;101427.78;5011014;28;20099;-77
2022/11/29 05:35:52;;;;;;;114.82;51.40;;;;;;;4.08;100.00;101437.81;5017704;28;20124;-78
2022/11/29 05:38:36;;;;;;;119.57;52.90;;;;;;;4.19;100.00;101434.41;5018064;28;20037;-77
2022/11/29 05:41:02;;;;;;;122.43;53.53;;;;;;;4.17;100.00;101447.03;5017874;28;20083;-76
2022/11/29 05:43:40;;;;;;;111.03;50.60;;;;;;;4.27;100.00;101442.78;5016992;28;20064;-76
2022/11/29 05:46:14;;;;;;;121.35;52.03;;;;;;;4.21;100.00;101445.88;5034430;28;20462;-76
2022/11/29 05:48:49;;;;;;;113.60;49.60;;;;;;;4.12;100.00;101449.19;5017342;28;20025;-76
2022/11/29 05:51:20;;;;;;;125.85;51.70;;;;;;;4.25;100.00;101455.44;5016591;28;20060;-76
2022/11/29 05:53:51;;;;;;;112.68;53.00;;;;;;;4.19;100.00;101458.53;5017368;28;20112;-77
2022/11/29 05:56:45;;;;;;;123.05;54.22;;;;;;;3.88;100.00;101457.03;5017690;28;20041;-76
2022/11/29 05:59:21;;;;;;;129.98;54.05;;;;;;;4.11;100.00;101466.22;5016970;28;20064;-76
2022/11/29 06:02:08;;;;;;;110.70;50.05;;;;;;;4.23;100.00;101462.72;5016949;28;20110;-76
2022/11/29 06:05:07;;;;;;;114.35;50.25;;;;;;;4.26;100.00;101467.88;5017317;28;20029;-76
2022/11/29 06:07:43;;;;;;;121.10;53.83;;;;;;;4.26;100.00;101462.53;5016763;28;20028;-76
2022/11/29 06:10:13;;;;;;;126.03;51.97;;;;;;;4.25;100.00;101466.19;5016620;28;20041;-76
2022/11/29 06:12:46;;;;;;;121.60;52.60;;;;;;;4.28;100.00;101471.31;5016760;28;20093;-76
2022/11/29 06:15:55;;;;;;;127.38;56.80;;;;;;;4.41;100.00;101476.72;5016476;28;20029;-76
2022/11/29 06:18:48;;;;;;;118.25;53.10;;;;;;;4.26;100.00;101474.09;5015773;28;20379;-76
2022/11/29 06:21:37;;;;;;;117.50;49.25;;;;;;;4.27;100.00;101469.59;5016529;28;20528;-76
2022/11/29 06:24:19;;;;;;;115.53;52.70;;;;;;;4.26;100.00;101489.34;5033714;28;20053;-76
2022/11/29 06:27:03;;;;;;;127.45;55.33;;;;;;;4.28;100.00;101482.03;5017294;28;20029;-76
2022/11/29 06:29:45;;;;;;;112.80;49.00;;;;;;;4.26;100.00;101484.81;5017271;28;20056;-76
2022/11/29 06:32:13;;;;;;;120.22;55.28;;;;;;;4.20;100.00;101489.75;5016296;28;20103;-76
2022/11/29 06:34:47;;;;;;;122.10;55.85;;;;;;;4.21;100.00;101502.16;5016572;28;20047;-77
2022/11/29 06:37:43;;;;;;;117.70;52.88;;;;;;;4.13;100.00;101500.00;5017410;28;20071;-77
2022/11/29 06:40:14;;;;;;;117.75;50.28;;;;;;;4.23;100.00;101505.59;5034320;28;20053;-77
2022/11/29 06:42:41;;;;;;;116.30;54.83;;;;;;;4.06;100.00;101510.28;5016665;28;20026;-76
2022/11/29 06:45:13;;;;;;;112.90;50.75;;;;;;;4.20;100.00;101511.19;5034540;28;20049;-77
2022/11/29 06:47:48;;;;;;;131.82;54.72;;;;;;;4.20;100.00;101516.53;5034420;28;20026;-77
2022/11/29 06:50:34;;;;;;;126.35;56.40;;;;;;;4.12;100.00;101509.00;5017085;28;20033;-77
2022/11/29 06:53:09;;;;;;;128.23;55.85;;;;;;;4.39;100.00;101516.19;5018085;28;20032;-77
2022/11/29 06:55:40;;;;;;;123.35;54.38;;;;;;;4.43;100.00;101518.53;5017739;28;20025;-77
2022/11/29 06:58:34;;;;;;;121.18;55.15;;;;;;;4.36;100.00;101519.91;5017038;28;20171;-77
2022/11/29 07:01:22;;;;;;;122.78;54.63;;;;;;;4.20;100.00;101522.75;5016710;28;20022;-77
2022/11/29 07:04:15;;;;;;;119.45;54.65;;;;;;;4.02;100.00;101524.81;5016624;28;20462;-76
2022/11/29 07:06:41;;;;;;;126.85;54.83;;;;;;;4.12;100.00;101524.22;4997187;28;20021;-77
2022/11/29 07:09:17;;;;;;;124.00;54.45;;;;;;;4.28;100.00;101530.28;4999665;28;20014;-77
2022/11/29 07:11:44;;;;;;;125.20;55.72;;;;;;;4.03;100.00;101529.22;5016630;28;20044;-78
2022/11/29 07:14:11;;;;;;;123.18;56.92;;;;;;;3.99;100.00;101535.75;5034134;28;20044;-77
2022/11/29 07:17:27;;;;;;;118.30;52.38;;;;;;;4.20;100.00;101537.97;5015987;28;20080;-77
2022/11/29 07:20:08;;;;;;;115.28;51.20;;;;;;;4.12;100.00;101540.31;4975237;28;20040;-77
2022/11/29 07:22:34;;;;;;;118.00;52.40;;;;;;;4.26;100.00;101537.56;5015870;28;20033;-76
2022/11/29 07:25:11;;;;;;;125.00;53.20;;;;;;;4.26;100.00;101543.78;5015925;28;20025;-75
2022/11/29 07:27:51;;;;;;;124.28;55.55;;;;;;;4.18;100.00;101550.63;5015853;28;20021;-76
2022/11/29 07:30:25;;;;;;;117.10;53.45;;;;;;;4.21;100.00;101550.41;5030729;28;20025;-72
2022/11/29 07:32:57;;;;;;;122.47;52.63;;;;;;;4.30;100.00;101547.13;5008749;28;20025;-73
2022/11/29 07:35:39;;;;;;;111.20;53.80;;;;;;;4.14;100.00;101549.09;5001092;28;20025;-73
2022/11/29 07:38:26;;;;;;;123.22;53.25;;;;;;;4.37;100.00;101551.13;5024650;28;20048;-73
2022/11/29 07:41:17;;;;;;;118.82;52.35;;;;;;;4.32;100.00;101564.84;5026879;28;20029;-73
2022/11/29 07:44:02;;;;;;;111.78;48.72;;;;;;;4.26;100.00;101559.88;4991475;28;20033;-73
2022/11/29 07:46:28;;;;;;;112.05;52.67;;;;;;;4.35;100.00;101563.75;5008829;28;20116;-73
2022/11/29 07:48:54;;;;;;;110.18;51.13;;;;;;;4.39;100.00;101565.28;5009018;28;20058;-73
2022/11/29 07:51:19;;;;;;;114.57;53.78;;;;;;;4.41;100.00;101563.34;5015980;28;20060;-73
2022/11/29 07:53:45;;;;;;;126.10;53.08;;;;;;;4.36;100.00;101573.53;5001815;28;20017;-73
2022/11/29 07:56:15;;;;;;;121.00;56.30;;;;;;;4.22;100.00;101562.84;5025471;28;20675;-72
2022/11/29 07:58:41;;;;;;;118.97;53.92;;;;;;;4.31;100.00;101567.63;5025631;28;20124;-73
2022/11/29 08:01:06;;;;;;;124.85;53.92;;;;;;;4.24;100.00;101566.31;5008553;28;20116;-72
2022/11/29 08:03:34;;;;;;;113.47;54.17;;;;;;;4.22;100.00;101568.22;5008376;28;20029;-73
2022/11/29 08:05:59;;;;;;;124.88;53.00;;;;;;;4.24;100.00;101579.72;5025773;28;20512;-73
2022/11/29 08:08:25;;;;;;;116.50;56.20;;;;;;;4.33;100.00;101571.91;5009791;28;20025;-73
2022/11/29 08:10:50;;;;;;;113.55;55.22;;;;;;;4.42;100.00;101578.47;5008210;28;20021;-73
2022/11/29 08:13:19;;;;;;;123.18;54.67;;;;;;;4.33;100.00;101581.78;5008227;28;20025;-73
2022/11/29 08:15:44;;;;;;;114.95;52.80;;;;;;;4.40;100.00;101583.09;5007592;28;20047;-73
2022/11/29 08:18:10;;;;;;;117.82;52.40;;;;;;;4.40;100.00;101580.41;5001819;28;20116;-73
2022/11/29 08:20:35;;;;;;;115.32;52.50;;;;;;;4.45;100.00;101575.63;5027165;28;20087;-73
2022/11/29 08:23:02;;;;;;;117.53;54.13;;;;;;;4.28;100.00;101578.53;5025071;28;20021;-73
2022/11/29 08:25:27;;;;;;;110.47;52.22;;;;;;;4.44;100.00;101573.91;5005281;28;20091;-73
2022/11/29 08:27:54;;;;;;;117.88;52.60;;;;;;;4.46;100.00;101574.66;5003499;28;20025;-73
2022/11/29 08:30:23;;;;;;;115.10;54.30;;;;;;;4.50;100.00;101568.13;5008531;28;20033;-72
2022/11/29 08:32:52;;;;;;;118.75;54.03;;;;;;;4.39;100.00;101576.03;5008386;28;20029;-73
2022/11/29 08:35:20;;;;;;;122.53;53.42;;;;;;;4.28;100.00;101573.16;5006325;28;20698;-73
2022/11/29 08:37:46;;;;;;;111.13;51.10;;;;;;;4.41;100.00;101578.59;5007125;28;20025;-72
2022/11/29 08:40:12;;;;;;;115.35;49.40;;;;;;;4.50;100.00;101584.22;5005821;28;20040;-73
2022/11/29 08:42:38;;;;;;;113.07;52.22;;;;;;;4.39;100.00;101581.38;5024199;28;20083;-73
2022/11/29 08:45:05;;;;;;;115.45;52.40;;;;;;;4.51;100.00;101580.56;5025226;28;20021;-73
2022/11/29 08:47:37;;;;;;;112.93;52.45;;;;;;;4.61;100.00;101586.16;5005996;28;20397;-73
2022/11/29 08:50:08;;;;;;;116.05;54.63;;;;;;;4.48;100.00;101591.47;5012673;28;20037;-73
2022/11/29 08:55:23;;;;;;;121.18;53.10;;;;;;;4.84;100.00;101595.38;5030274;28;19974;-73
2022/11/29 08:57:50;;;;;;;111.40;52.25;;;;;;;4.79;100.00;101605.53;5012860;28;20100;-73
2022/11/29 09:00:16;;;;;;;116.28;51.13;;;;;;;4.71;100.00;101607.88;5029778;28;20033;-73
2022/11/29 09:02:41;;;;;;;108.18;53.15;;;;;;;4.92;100.00;101601.06;5030835;28;20048;-71
2022/11/29 09:05:09;;;;;;;115.43;57.20;;;;;;;5.07;100.00;101602.69;5029003;28;20025;-72
2022/11/29 09:07:35;;;;;;;110.70;53.25;;;;;;;5.14;100.00;101601.31;5011849;28;20025;-72
2022/11/29 09:10:06;;;;;;;110.88;53.53;;;;;;;4.81;100.00;101603.59;5028987;28;20426;-73
2022/11/29 09:12:32;;;;;;;;;;;;;;;5.13;100.00;101604.97;5027633;28;20025;-72
2022/11/29 09:14:58;;;;;;;108.30;49.03;;;;;;;5.16;100.00;101601.22;5009135;28;19944;-72
2022/11/29 09:17:24;;;;;;;116.57;51.47;;;;;;;5.12;100.00;101613.13;5008985;28;20064;-72
2022/11/29 09:25:00;;;;;;;102.35;50.85;;;;;;;4.63;100.00;101606.56;5008820;28;20064;-72
2022/11/29 09:27:26;;;;;;;107.65;49.45;;;;;;;4.76;100.00;101613.78;4973270;28;20034;-73
2022/11/29 09:29:51;;;;;;;99.93;49.33;;;;;;;4.98;100.00;101618.59;4977933;28;20110;-72
2022/11/29 09:32:16;;;;;;;105.47;52.33;;;;;;;4.88;100.00;101621.00;4987893;28;20034;-73
2022/11/29 09:34:42;;;;;;;114.47;54.40;;;;;;;4.75;100.00;101625.47;4953299;28;20114;-72
2022/11/29 09:37:07;;;;;;;110.03;54.05;;;;;;;4.47;100.00;101632.66;4984337;28;20022;-72
2022/11/29 09:39:32;;;;;;;114.90;53.67;;;;;;;4.61;100.00;101640.66;4972552;28;20026;-72
2022/11/29 09:42:26;;;;;;;105.88;51.53;;;;;;;4.55;100.00;101633.03;4973702;28;20034;-73
2022/11/29 09:45:03;;;;;;;101.95;47.67;;;;;;;4.57;100.00;101633.81;4972417;28;20080;-72
2022/11/29 09:47:55;;;;;;;109.28;53.60;;;;;;;4.53;100.00;101637.63;4973100;28;20030;-72
2022/11/29 09:50:36;;;;;;;110.03;49.40;;;;;;;4.73;100.00;101632.78;4937624;28;20411;-73
2022/11/29 09:53:33;;;;;;;108.85;52.55;;;;;;;4.84;100.00;101635.63;4971329;28;20510;-72
2022/11/29 09:56:09;;;;;;;104.15;50.70;;;;;;;4.74;100.00;101639.84;4972009;28;20042;-72
2022/11/29 09:58:52;;;;;;;123.90;54.40;;;;;;;4.78;100.00;101644.06;4972127;28;20041;-72
2022/11/29 10:01:26;;;;;;;109.45;52.20;;;;;;;4.82;100.00;101638.38;4971337;28;20471;-71
2022/11/29 10:03:56;;;;;;;110.38;54.45;;;;;;;4.69;100.00;101641.97;4970703;28;20026;-71
2022/11/29 10:06:26;;;;;;;113.60;54.00;;;;;;;4.87;100.00;101651.50;4990103;28;20067;-73
2022/11/29 10:09:23;;;;;;;111.00;50.90;;;;;;;4.93;100.00;101645.72;4971972;28;20026;-73
2022/11/29 10:12:14;;;;;;;109.30;51.97;;;;;;;4.70;100.00;101633.00;4971935;28;20038;-72
2022/11/29 10:14:54;;;;;;;113.85;54.70;;;;;;;4.78;100.00;101641.38;4970078;28;20038;-71
2022/11/29 10:17:39;;;;;;;119.95;53.55;;;;;;;4.61;100.00;101646.03;4963754;28;20121;-71
2022/11/29 10:20:20;;;;;;;108.00;51.28;;;;;;;4.74;100.00;101645.22;4976170;28;20084;-71
2022/11/29 10:22:53;;;;;;;107.85;51.88;;;;;;;4.97;100.00;101647.25;4987655;28;20030;-71
2022/11/29 10:25:32;;;;;;;112.65;55.03;;;;;;;4.95;100.00;101646.47;4987978;28;20031;-71
2022/11/29 10:27:58;;;;;;;113.15;51.92;;;;;;;5.01;100.00;101648.75;4971405;28;20040;-72
2022/11/29 10:30:23;;;;;;;104.50;50.45;;;;;;;5.09;100.00;101648.25;4990671;28;20113;-71
2022/11/29 10:32:59;;;;;;;105.85;50.40;;;;;;;4.93;100.00;101650.22;4990141;28;20057;-71
2022/11/29 10:35:24;;;;;;;113.07;51.58;;;;;;;5.02;100.00;101647.81;4965254;28;20129;-71
2022/11/29 10:37:53;;;;;;;111.10;51.05;;;;;;;5.11;100.00;101655.22;4973300;28;20211;-71
2022/11/29 10:40:24;;;;;;;111.32;53.22;;;;;;;5.02;100.00;101655.84;4989999;28;20467;-71
2022/11/29 10:42:54;;;;;;;102.25;49.72;;;;;;;5.29;100.00;101657.63;4983589;28;20064;-71
2022/11/29 10:45:44;;;;;;;105.88;51.92;;;;;;;5.17;100.00;101660.19;4972808;28;20035;-70
2022/11/29 10:48:16;;;;;;;111.47;51.53;;;;;;;5.31;100.00;101663.75;4971179;28;20014;-71
2022/11/29 10:50:47;;;;;;;99.97;49.60;;;;;;;5.47;100.00;101656.34;4988503;28;20042;-74
2022/11/29 10:53:16;;;;;;;104.75;51.63;;;;;;;5.54;100.00;101652.28;4969871;28;20415;-74
2022/11/29 10:55:49;;;;;;;106.18;50.33;;;;;;;5.30;100.00;101659.34;4986137;28;20041;-74
2022/11/29 10:58:23;;;;;;;106.55;51.33;;;;;;;5.16;100.00;101653.09;4987698;28;20030;-74
2022/11/29 11:01:05;;;;;;;104.03;51.03;;;;;;;5.14;100.00;101655.00;4970212;28;20112;-74
2022/11/29 11:03:41;;;;;;;100.15;47.13;;;;;;;5.30;100.00;101659.34;4964722;28;20037;-74
2022/11/29 11:06:26;;;;;;;105.40;48.70;;;;;;;5.07;100.00;101645.66;4970845;28;20030;-75
2022/11/29 11:08:54;;;;;;;104.10;48.80;;;;;;;5.31;100.00;101651.19;4970525;28;20091;-72
2022/11/29 11:11:29;;;;;;;110.40;51.97;;;;;;;5.21;100.00;101649.22;4969771;28;20026;-73
2022/11/29 11:14:21;;;;;;;108.28;50.33;;;;;;;5.12;100.00;101645.34;4969244;28;20076;-72
2022/11/29 11:16:46;;;;;;;112.93;53.47;;;;;;;5.18;100.00;101656.53;4966387;28;20092;-74
2022/11/29 11:19:38;;;;;;;110.20;51.25;;;;;;;5.25;100.00;101640.00;4969744;28;20285;-74
2022/11/29 11:22:04;;;;;;;107.13;47.65;;;;;;;5.22;100.00;101645.59;4966156;28;20060;-74
2022/11/29 11:24:39;;;;;;;105.13;52.10;;;;;;;5.17;100.00;101649.44;4969223;28;20109;-74
2022/11/29 11:27:04;;;;;;;111.25;53.28;;;;;;;5.21;100.00;101649.22;4978537;28;20146;-74
2022/11/29 11:29:36;;;;;;;108.15;49.38;;;;;;;5.17;100.00;101651.25;4968790;28;20097;-75
2022/11/29 11:32:03;;;;;;;107.72;51.47;;;;;;;5.14;100.00;101655.00;4970163;28;20034;-74
2022/11/29 11:34:35;;;;;;;108.88;49.90;;;;;;;5.41;100.00;101651.38;4986939;28;20022;-72
2022/11/29 11:37:21;;;;;;;116.50;54.90;;;;;;;5.64;100.00;101653.34;4969978;28;20027;-73
2022/11/29 11:39:49;;;;;;;113.57;50.85;;;;;;;5.78;100.00;101655.06;4969565;28;20131;-73
2022/11/29 11:42:37;;;;;;;118.28;56.78;;;;;;;5.49;100.00;101649.06;4987204;28;20045;-73
2022/11/29 11:45:09;;;;;;;110.70;51.55;;;;;;;5.58;100.00;101659.16;4987280;28;20022;-73
2022/11/29 11:47:41;;;;;;;109.72;51.50;;;;;;;5.56;100.00;101655.72;4970434;28;20030;-73
2022/11/29 11:50:12;;;;;;;113.30;51.58;;;;;;;5.73;100.00;101662.59;4970619;28;20065;-73
2022/11/29 11:52:38;;;;;;;;;;;;;;;5.41;100.00;101667.50;4970627;28;20034;-73